sensor_id;sensor_type;location;lat;lon;timestamp;P1;durP1;ratioP1;P2;durP2;ratioP2
9775;SDS011;4927;52.472;13.108;2023-01-24T00:02:17;22.75;;;15.90;;
9775;SDS011;4927;52.472;13.108;2023-01-24T00:07:27;21.30;;;16.30;;
9775;SDS011;4927;52.472;13.108;2023-01-24T00:12:34;17.33;;;15.43;;
9775;SDS011;4927;52.472;13.108;2023-01-24T00:17:41;19.50;;;16.45;;
9775;SDS011;4927;52.472;13.108;2023-01-24T00:22:51;22.52;;;16.08;;
9775;SDS011;4927;52.472;13.108;2023-01-24T00:27:57;24.15;;;17.10;;
9775;SDS011;4927;52.472;13.108;2023-01-24T00:33:08;22.00;;;17.02;;
9775;SDS011;4927;52.472;13.108;2023-01-24T00:38:18;24.15;;;16.92;;
9775;SDS011;4927;52.472;13.108;2023-01-24T00:43:27;24.00;;;16.33;;
9775;SDS011;4927;52.472;13.108;2023-01-24T00:48:36;23.92;;;17.15;;
9775;SDS011;4927;52.472;13.108;2023-01-24T00:53:46;21.30;;;16.77;;
9775;SDS011;4927;52.472;13.108;2023-01-24T00:58:53;22.90;;;17.42;;
9775;SDS011;4927;52.472;13.108;2023-01-24T01:04:03;21.08;;;17.30;;
9775;SDS011;4927;52.472;13.108;2023-01-24T01:09:13;24.05;;;17.92;;
9775;SDS011;4927;52.472;13.108;2023-01-24T01:14:24;28.15;;;17.90;;
9775;SDS011;4927;52.472;13.108;2023-01-24T01:19:34;22.90;;;17.60;;
9775;SDS011;4927;52.472;13.108;2023-01-24T01:24:40;24.20;;;18.00;;
9775;SDS011;4927;52.472;13.108;2023-01-24T01:29:46;23.08;;;17.27;;
9775;SDS011;4927;52.472;13.108;2023-01-24T01:34:57;23.38;;;17.30;;
9775;SDS011;4927;52.472;13.108;2023-01-24T01:40:07;24.02;;;18.10;;
9775;SDS011;4927;52.472;13.108;2023-01-24T01:45:29;25.48;;;17.83;;
9775;SDS011;4927;52.472;13.108;2023-01-24T01:50:26;27.83;;;17.90;;
9775;SDS011;4927;52.472;13.108;2023-01-24T01:55:36;26.42;;;18.75;;
9775;SDS011;4927;52.472;13.108;2023-01-24T02:00:42;26.45;;;19.15;;
9775;SDS011;4927;52.472;13.108;2023-01-24T02:05:48;21.70;;;16.70;;
9775;SDS011;4927;52.472;13.108;2023-01-24T02:10:59;25.70;;;18.05;;
9775;SDS011;4927;52.472;13.108;2023-01-24T02:16:11;22.17;;;16.08;;
9775;SDS011;4927;52.472;13.108;2023-01-24T02:21:21;21.20;;;15.23;;
9775;SDS011;4927;52.472;13.108;2023-01-24T02:26:32;21.65;;;14.32;;
9775;SDS011;4927;52.472;13.108;2023-01-24T02:37:04;19.83;;;14.38;;
9775;SDS011;4927;52.472;13.108;2023-01-24T02:42:23;16.23;;;13.90;;
9775;SDS011;4927;52.472;13.108;2023-01-24T02:47:34;17.77;;;13.85;;
9775;SDS011;4927;52.472;13.108;2023-01-24T02:52:39;17.83;;;14.43;;
9775;SDS011;4927;52.472;13.108;2023-01-24T02:57:56;19.80;;;11.67;;
9775;SDS011;4927;52.472;13.108;2023-01-24T03:03:08;17.30;;;13.60;;
9775;SDS011;4927;52.472;13.108;2023-01-24T03:08:14;17.50;;;13.98;;
9775;SDS011;4927;52.472;13.108;2023-01-24T03:13:20;19.50;;;13.43;;
9775;SDS011;4927;52.472;13.108;2023-01-24T03:18:37;15.30;;;12.23;;
9775;SDS011;4927;52.472;13.108;2023-01-24T03:23:53;19.77;;;12.63;;
9775;SDS011;4927;52.472;13.108;2023-01-24T03:29:06;16.10;;;12.10;;
9775;SDS011;4927;52.472;13.108;2023-01-24T03:34:23;14.90;;;11.20;;
9775;SDS011;4927;52.472;13.108;2023-01-24T03:39:39;20.17;;;12.00;;
9775;SDS011;4927;52.472;13.108;2023-01-24T03:44:52;17.30;;;12.20;;
9775;SDS011;4927;52.472;13.108;2023-01-24T03:50:02;17.33;;;11.38;;
9775;SDS011;4927;52.472;13.108;2023-01-24T03:55:19;14.47;;;10.20;;
9775;SDS011;4927;52.472;13.108;2023-01-24T04:00:29;12.88;;;11.10;;
9775;SDS011;4927;52.472;13.108;2023-01-24T04:05:40;12.75;;;11.38;;
9775;SDS011;4927;52.472;13.108;2023-01-24T04:10:46;13.82;;;10.82;;
9775;SDS011;4927;52.472;13.108;2023-01-24T04:15:56;10.73;;;9.63;;
9775;SDS011;4927;52.472;13.108;2023-01-24T04:21:03;13.73;;;11.12;;
9775;SDS011;4927;52.472;13.108;2023-01-24T04:26:13;11.02;;;10.02;;
9775;SDS011;4927;52.472;13.108;2023-01-24T04:31:24;12.57;;;10.23;;
9775;SDS011;4927;52.472;13.108;2023-01-24T04:36:34;14.05;;;11.00;;
9775;SDS011;4927;52.472;13.108;2023-01-24T04:41:45;12.90;;;10.90;;
9775;SDS011;4927;52.472;13.108;2023-01-24T04:46:55;10.75;;;9.77;;
9775;SDS011;4927;52.472;13.108;2023-01-24T04:52:01;11.27;;;10.18;;
9775;SDS011;4927;52.472;13.108;2023-01-24T04:57:12;11.20;;;10.30;;
9775;SDS011;4927;52.472;13.108;2023-01-24T05:02:18;12.57;;;11.00;;
9775;SDS011;4927;52.472;13.108;2023-01-24T05:07:25;11.20;;;10.27;;
9775;SDS011;4927;52.472;13.108;2023-01-24T05:12:35;11.52;;;10.43;;
9775;SDS011;4927;52.472;13.108;2023-01-24T05:17:43;12.05;;;10.70;;
9775;SDS011;4927;52.472;13.108;2023-01-24T05:22:54;11.88;;;10.70;;
9775;SDS011;4927;52.472;13.108;2023-01-24T05:27:59;11.50;;;10.40;;
9775;SDS011;4927;52.472;13.108;2023-01-24T05:33:09;11.40;;;10.50;;
9775;SDS011;4927;52.472;13.108;2023-01-24T05:38:19;10.93;;;10.10;;
9775;SDS011;4927;52.472;13.108;2023-01-24T05:43:29;11.40;;;10.23;;
9775;SDS011;4927;52.472;13.108;2023-01-24T05:48:41;10.55;;;9.50;;
9775;SDS011;4927;52.472;13.108;2023-01-24T05:53:46;10.75;;;9.85;;
9775;SDS011;4927;52.472;13.108;2023-01-24T05:58:57;11.25;;;10.30;;
9775;SDS011;4927;52.472;13.108;2023-01-24T06:04:06;11.63;;;10.52;;
9775;SDS011;4927;52.472;13.108;2023-01-24T06:09:17;11.32;;;10.32;;
9775;SDS011;4927;52.472;13.108;2023-01-24T06:14:23;11.63;;;10.63;;
9775;SDS011;4927;52.472;13.108;2023-01-24T06:19:34;12.05;;;10.88;;
9775;SDS011;4927;52.472;13.108;2023-01-24T06:24:45;12.57;;;10.90;;
9775;SDS011;4927;52.472;13.108;2023-01-24T06:29:56;11.27;;;10.18;;
9775;SDS011;4927;52.472;13.108;2023-01-24T06:35:16;10.75;;;9.95;;
9775;SDS011;4927;52.472;13.108;2023-01-24T06:40:26;11.30;;;10.30;;
9775;SDS011;4927;52.472;13.108;2023-01-24T06:45:37;11.50;;;10.50;;
9775;SDS011;4927;52.472;13.108;2023-01-24T06:50:47;10.77;;;9.77;;
9775;SDS011;4927;52.472;13.108;2023-01-24T06:55:57;10.70;;;9.80;;
9775;SDS011;4927;52.472;13.108;2023-01-24T07:01:08;10.65;;;9.68;;
9775;SDS011;4927;52.472;13.108;2023-01-24T07:06:14;10.57;;;9.77;;
9775;SDS011;4927;52.472;13.108;2023-01-24T07:11:20;11.77;;;10.68;;
9775;SDS011;4927;52.472;13.108;2023-01-24T07:16:26;11.98;;;10.73;;
9775;SDS011;4927;52.472;13.108;2023-01-24T07:21:33;11.68;;;10.65;;
9775;SDS011;4927;52.472;13.108;2023-01-24T07:26:43;11.70;;;10.60;;
9775;SDS011;4927;52.472;13.108;2023-01-24T07:31:54;11.98;;;10.60;;
9775;SDS011;4927;52.472;13.108;2023-01-24T07:37:06;10.80;;;9.90;;
9775;SDS011;4927;52.472;13.108;2023-01-24T07:42:15;12.20;;;11.10;;
9775;SDS011;4927;52.472;13.108;2023-01-24T07:47:26;11.80;;;10.60;;
9775;SDS011;4927;52.472;13.108;2023-01-24T07:52:36;12.50;;;11.40;;
9775;SDS011;4927;52.472;13.108;2023-01-24T07:57:46;12.70;;;11.25;;
9775;SDS011;4927;52.472;13.108;2023-01-24T08:02:57;13.10;;;11.80;;
9775;SDS011;4927;52.472;13.108;2023-01-24T08:08:04;12.37;;;11.07;;
9775;SDS011;4927;52.472;13.108;2023-01-24T08:13:14;12.95;;;11.75;;
9775;SDS011;4927;52.472;13.108;2023-01-24T08:18:20;14.30;;;12.90;;
9775;SDS011;4927;52.472;13.108;2023-01-24T08:23:26;12.45;;;11.15;;
9775;SDS011;4927;52.472;13.108;2023-01-24T08:28:33;12.15;;;10.73;;
9775;SDS011;4927;52.472;13.108;2023-01-24T08:33:39;11.20;;;10.00;;
9775;SDS011;4927;52.472;13.108;2023-01-24T08:38:45;12.55;;;11.35;;
9775;SDS011;4927;52.472;13.108;2023-01-24T08:43:51;11.93;;;10.63;;
9775;SDS011;4927;52.472;13.108;2023-01-24T08:49:02;14.00;;;11.18;;
9775;SDS011;4927;52.472;13.108;2023-01-24T08:54:13;12.60;;;11.43;;
9775;SDS011;4927;52.472;13.108;2023-01-24T08:59:19;11.40;;;10.40;;
9775;SDS011;4927;52.472;13.108;2023-01-24T09:04:29;12.73;;;11.43;;
9775;SDS011;4927;52.472;13.108;2023-01-24T09:09:35;12.05;;;10.85;;
9775;SDS011;4927;52.472;13.108;2023-01-24T09:14:45;12.32;;;11.00;;
9775;SDS011;4927;52.472;13.108;2023-01-24T09:19:56;11.95;;;10.85;;
9775;SDS011;4927;52.472;13.108;2023-01-24T09:25:06;14.93;;;11.45;;
9775;SDS011;4927;52.472;13.108;2023-01-24T09:30:18;14.25;;;11.75;;
9775;SDS011;4927;52.472;13.108;2023-01-24T09:35:29;12.27;;;10.98;;
9775;SDS011;4927;52.472;13.108;2023-01-24T09:40:41;12.52;;;10.98;;
9775;SDS011;4927;52.472;13.108;2023-01-24T09:45:57;14.23;;;11.45;;
9775;SDS011;4927;52.472;13.108;2023-01-24T09:51:10;14.95;;;12.02;;
9775;SDS011;4927;52.472;13.108;2023-01-24T09:56:24;16.17;;;11.90;;
9775;SDS011;4927;52.472;13.108;2023-01-24T10:01:33;17.20;;;12.00;;
9775;SDS011;4927;52.472;13.108;2023-01-24T10:06:40;19.87;;;12.50;;
9775;SDS011;4927;52.472;13.108;2023-01-24T10:11:57;18.50;;;13.48;;
9775;SDS011;4927;52.472;13.108;2023-01-24T10:17:15;17.02;;;12.32;;
9775;SDS011;4927;52.472;13.108;2023-01-24T10:22:53;17.20;;;12.15;;
9775;SDS011;4927;52.472;13.108;2023-01-24T10:28:16;19.48;;;12.50;;
9775;SDS011;4927;52.472;13.108;2023-01-24T10:33:22;25.30;;;13.10;;
9775;SDS011;4927;52.472;13.108;2023-01-24T10:38:32;24.98;;;14.38;;
9775;SDS011;4927;52.472;13.108;2023-01-24T10:43:39;23.92;;;14.30;;
9775;SDS011;4927;52.472;13.108;2023-01-24T10:48:50;22.20;;;13.23;;
9775;SDS011;4927;52.472;13.108;2023-01-24T10:54:00;27.60;;;14.70;;
9775;SDS011;4927;52.472;13.108;2023-01-24T10:59:10;28.65;;;14.87;;
9775;SDS011;4927;52.472;13.108;2023-01-24T11:04:24;29.50;;;15.63;;
9775;SDS011;4927;52.472;13.108;2023-01-24T11:09:33;32.53;;;16.20;;
9775;SDS011;4927;52.472;13.108;2023-01-24T11:14:43;35.92;;;16.15;;
9775;SDS011;4927;52.472;13.108;2023-01-24T11:19:57;34.15;;;16.92;;
9775;SDS011;4927;52.472;13.108;2023-01-24T11:25:12;44.75;;;18.20;;
9775;SDS011;4927;52.472;13.108;2023-01-24T11:30:17;43.63;;;18.62;;
9775;SDS011;4927;52.472;13.108;2023-01-24T11:35:23;50.17;;;18.98;;
9775;SDS011;4927;52.472;13.108;2023-01-24T11:40:37;44.92;;;19.70;;
9775;SDS011;4927;52.472;13.108;2023-01-24T11:45:54;54.08;;;21.37;;
9775;SDS011;4927;52.472;13.108;2023-01-24T11:51:05;52.75;;;22.05;;
9775;SDS011;4927;52.472;13.108;2023-01-24T11:56:14;63.28;;;23.62;;
9775;SDS011;4927;52.472;13.108;2023-01-24T12:06:59;58.08;;;23.30;;
9775;SDS011;4927;52.472;13.108;2023-01-24T12:12:29;70.90;;;25.10;;
9775;SDS011;4927;52.472;13.108;2023-01-24T12:23:20;66.10;;;25.30;;
9775;SDS011;4927;52.472;13.108;2023-01-24T12:28:33;74.87;;;26.17;;
9775;SDS011;4927;52.472;13.108;2023-01-24T12:33:45;64.20;;;25.25;;
9775;SDS011;4927;52.472;13.108;2023-01-24T12:38:51;79.05;;;25.48;;
9775;SDS011;4927;52.472;13.108;2023-01-24T12:44:18;65.07;;;25.17;;
9775;SDS011;4927;52.472;13.108;2023-01-24T12:55:13;74.28;;;25.73;;
9775;SDS011;4927;52.472;13.108;2023-01-24T13:00:23;75.12;;;25.50;;
9775;SDS011;4927;52.472;13.108;2023-01-24T13:05:38;79.72;;;26.70;;
9775;SDS011;4927;52.472;13.108;2023-01-24T13:16:25;81.12;;;26.95;;
9775;SDS011;4927;52.472;13.108;2023-01-24T13:21:40;82.15;;;26.70;;
9775;SDS011;4927;52.472;13.108;2023-01-24T13:26:57;83.12;;;26.35;;
9775;SDS011;4927;52.472;13.108;2023-01-24T13:32:17;67.85;;;24.12;;
9775;SDS011;4927;52.472;13.108;2023-01-24T13:37:28;88.40;;;26.80;;
9775;SDS011;4927;52.472;13.108;2023-01-24T13:42:38;75.95;;;25.83;;
9775;SDS011;4927;52.472;13.108;2023-01-24T13:47:49;76.00;;;26.15;;
9775;SDS011;4927;52.472;13.108;2023-01-24T13:53:00;72.03;;;24.77;;
9775;SDS011;4927;52.472;13.108;2023-01-24T13:58:16;67.82;;;23.40;;
9775;SDS011;4927;52.472;13.108;2023-01-24T14:03:27;65.30;;;24.30;;
9775;SDS011;4927;52.472;13.108;2023-01-24T14:08:47;70.93;;;23.63;;
9775;SDS011;4927;52.472;13.108;2023-01-24T14:13:57;76.37;;;25.30;;
9775;SDS011;4927;52.472;13.108;2023-01-24T14:19:12;69.35;;;24.48;;
9775;SDS011;4927;52.472;13.108;2023-01-24T14:24:24;63.27;;;22.27;;
9775;SDS011;4927;52.472;13.108;2023-01-24T14:29:36;65.30;;;25.27;;
9775;SDS011;4927;52.472;13.108;2023-01-24T14:34:47;78.50;;;27.37;;
9775;SDS011;4927;52.472;13.108;2023-01-24T14:40:09;76.20;;;27.17;;
9775;SDS011;4927;52.472;13.108;2023-01-24T14:45:12;80.33;;;25.17;;
9775;SDS011;4927;52.472;13.108;2023-01-24T14:50:21;70.55;;;24.52;;
9775;SDS011;4927;52.472;13.108;2023-01-24T14:55:36;72.82;;;24.40;;
9775;SDS011;4927;52.472;13.108;2023-01-24T15:00:45;73.87;;;24.30;;
9775;SDS011;4927;52.472;13.108;2023-01-24T15:06:01;68.18;;;24.52;;
9775;SDS011;4927;52.472;13.108;2023-01-24T15:11:18;77.75;;;27.40;;
9775;SDS011;4927;52.472;13.108;2023-01-24T15:16:32;79.43;;;28.05;;
9775;SDS011;4927;52.472;13.108;2023-01-24T15:21:43;72.87;;;25.67;;
9775;SDS011;4927;52.472;13.108;2023-01-24T15:26:50;79.40;;;24.97;;
9775;SDS011;4927;52.472;13.108;2023-01-24T15:32:00;74.70;;;25.62;;
9775;SDS011;4927;52.472;13.108;2023-01-24T15:37:11;80.60;;;25.53;;
9775;SDS011;4927;52.472;13.108;2023-01-24T15:42:21;61.60;;;23.35;;
9775;SDS011;4927;52.472;13.108;2023-01-24T15:47:37;83.07;;;25.43;;
9775;SDS011;4927;52.472;13.108;2023-01-24T15:58:16;60.45;;;22.17;;
9775;SDS011;4927;52.472;13.108;2023-01-24T16:03:26;58.08;;;21.50;;
9775;SDS011;4927;52.472;13.108;2023-01-24T16:08:37;70.57;;;25.67;;
9775;SDS011;4927;52.472;13.108;2023-01-24T16:13:47;73.68;;;26.25;;
9775;SDS011;4927;52.472;13.108;2023-01-24T16:18:53;54.13;;;21.43;;
9775;SDS011;4927;52.472;13.108;2023-01-24T16:24:04;71.12;;;23.98;;
9775;SDS011;4927;52.472;13.108;2023-01-24T16:29:15;75.50;;;27.73;;
9775;SDS011;4927;52.472;13.108;2023-01-24T16:34:26;69.68;;;24.67;;
9775;SDS011;4927;52.472;13.108;2023-01-24T16:39:36;70.80;;;24.27;;
9775;SDS011;4927;52.472;13.108;2023-01-24T16:44:56;61.55;;;21.27;;
9775;SDS011;4927;52.472;13.108;2023-01-24T16:50:07;61.47;;;22.60;;
9775;SDS011;4927;52.472;13.108;2023-01-24T16:55:15;61.10;;;22.30;;
9775;SDS011;4927;52.472;13.108;2023-01-24T17:00:26;65.97;;;24.08;;
9775;SDS011;4927;52.472;13.108;2023-01-24T17:05:37;69.03;;;23.90;;
9775;SDS011;4927;52.472;13.108;2023-01-24T17:10:46;75.87;;;23.27;;
9775;SDS011;4927;52.472;13.108;2023-01-24T17:16:02;64.55;;;22.52;;
9775;SDS011;4927;52.472;13.108;2023-01-24T17:21:08;57.70;;;22.27;;
9775;SDS011;4927;52.472;13.108;2023-01-24T17:26:18;58.38;;;22.17;;
9775;SDS011;4927;52.472;13.108;2023-01-24T17:31:25;68.10;;;23.12;;
9775;SDS011;4927;52.472;13.108;2023-01-24T17:36:35;70.50;;;23.62;;
9775;SDS011;4927;52.472;13.108;2023-01-24T17:41:41;58.15;;;21.52;;
9775;SDS011;4927;52.472;13.108;2023-01-24T17:46:51;65.78;;;22.92;;
9775;SDS011;4927;52.472;13.108;2023-01-24T17:52:02;58.03;;;20.73;;
9775;SDS011;4927;52.472;13.108;2023-01-24T17:57:12;58.85;;;22.95;;
9775;SDS011;4927;52.472;13.108;2023-01-24T18:02:23;58.17;;;22.65;;
9775;SDS011;4927;52.472;13.108;2023-01-24T18:07:29;59.58;;;22.35;;
9775;SDS011;4927;52.472;13.108;2023-01-24T18:12:40;62.92;;;23.80;;
9775;SDS011;4927;52.472;13.108;2023-01-24T18:17:52;57.47;;;23.80;;
9775;SDS011;4927;52.472;13.108;2023-01-24T18:23:03;58.70;;;23.58;;
9775;SDS011;4927;52.472;13.108;2023-01-24T18:28:13;64.30;;;22.77;;
9775;SDS011;4927;52.472;13.108;2023-01-24T18:33:19;63.17;;;21.50;;
9775;SDS011;4927;52.472;13.108;2023-01-24T18:38:25;62.72;;;22.25;;
9775;SDS011;4927;52.472;13.108;2023-01-24T18:43:32;57.22;;;21.62;;
9775;SDS011;4927;52.472;13.108;2023-01-24T18:48:42;53.47;;;21.92;;
9775;SDS011;4927;52.472;13.108;2023-01-24T18:53:52;48.42;;;21.92;;
9775;SDS011;4927;52.472;13.108;2023-01-24T18:58:58;44.78;;;21.12;;
9775;SDS011;4927;52.472;13.108;2023-01-24T19:04:09;45.12;;;21.60;;
9775;SDS011;4927;52.472;13.108;2023-01-24T19:09:16;45.97;;;20.83;;
9775;SDS011;4927;52.472;13.108;2023-01-24T19:14:27;51.90;;;23.33;;
9775;SDS011;4927;52.472;13.108;2023-01-24T19:19:33;44.45;;;21.55;;
9775;SDS011;4927;52.472;13.108;2023-01-24T19:24:44;51.30;;;22.50;;
9775;SDS011;4927;52.472;13.108;2023-01-24T19:29:55;42.08;;;20.30;;
9775;SDS011;4927;52.472;13.108;2023-01-24T19:35:05;45.17;;;19.85;;
9775;SDS011;4927;52.472;13.108;2023-01-24T19:40:16;41.55;;;19.50;;
9775;SDS011;4927;52.472;13.108;2023-01-24T19:45:26;38.45;;;19.02;;
9775;SDS011;4927;52.472;13.108;2023-01-24T19:50:33;48.87;;;20.98;;
9775;SDS011;4927;52.472;13.108;2023-01-24T19:55:43;44.97;;;19.30;;
9775;SDS011;4927;52.472;13.108;2023-01-24T20:00:53;49.83;;;21.77;;
9775;SDS011;4927;52.472;13.108;2023-01-24T20:06:05;44.28;;;20.48;;
9775;SDS011;4927;52.472;13.108;2023-01-24T20:11:10;36.80;;;18.92;;
9775;SDS011;4927;52.472;13.108;2023-01-24T20:16:22;49.88;;;21.45;;
9775;SDS011;4927;52.472;13.108;2023-01-24T20:21:28;39.65;;;19.50;;
9775;SDS011;4927;52.472;13.108;2023-01-24T20:26:38;39.83;;;18.12;;
9775;SDS011;4927;52.472;13.108;2023-01-24T20:31:44;46.00;;;21.27;;
9775;SDS011;4927;52.472;13.108;2023-01-24T20:36:54;47.80;;;21.58;;
9775;SDS011;4927;52.472;13.108;2023-01-24T20:42:04;44.55;;;22.00;;
9775;SDS011;4927;52.472;13.108;2023-01-24T20:47:15;44.95;;;23.02;;
9775;SDS011;4927;52.472;13.108;2023-01-24T20:52:25;41.35;;;20.05;;
9775;SDS011;4927;52.472;13.108;2023-01-24T20:57:31;46.78;;;22.20;;
9775;SDS011;4927;52.472;13.108;2023-01-24T21:02:41;45.80;;;20.65;;
9775;SDS011;4927;52.472;13.108;2023-01-24T21:07:52;41.63;;;21.12;;
9775;SDS011;4927;52.472;13.108;2023-01-24T21:13:02;39.65;;;21.00;;
9775;SDS011;4927;52.472;13.108;2023-01-24T21:18:13;43.70;;;21.08;;
9775;SDS011;4927;52.472;13.108;2023-01-24T21:23:23;33.25;;;19.12;;
9775;SDS011;4927;52.472;13.108;2023-01-24T21:28:33;42.22;;;20.80;;
9775;SDS011;4927;52.472;13.108;2023-01-24T21:33:37;41.53;;;19.45;;
9775;SDS011;4927;52.472;13.108;2023-01-24T21:38:47;38.38;;;19.92;;
9775;SDS011;4927;52.472;13.108;2023-01-24T21:43:57;38.17;;;20.05;;
9775;SDS011;4927;52.472;13.108;2023-01-24T21:49:08;36.83;;;19.85;;
9775;SDS011;4927;52.472;13.108;2023-01-24T21:54:21;44.20;;;21.67;;
9775;SDS011;4927;52.472;13.108;2023-01-24T21:59:33;37.60;;;18.92;;
9775;SDS011;4927;52.472;13.108;2023-01-24T22:04:42;34.15;;;19.37;;
9775;SDS011;4927;52.472;13.108;2023-01-24T22:09:54;32.65;;;19.10;;
9775;SDS011;4927;52.472;13.108;2023-01-24T22:15:04;30.12;;;18.30;;
9775;SDS011;4927;52.472;13.108;2023-01-24T22:20:16;38.35;;;18.60;;
9775;SDS011;4927;52.472;13.108;2023-01-24T22:25:29;30.40;;;17.80;;
9775;SDS011;4927;52.472;13.108;2023-01-24T22:30:40;31.98;;;18.37;;
9775;SDS011;4927;52.472;13.108;2023-01-24T22:35:52;30.83;;;18.10;;
9775;SDS011;4927;52.472;13.108;2023-01-24T22:41:01;32.65;;;18.25;;
9775;SDS011;4927;52.472;13.108;2023-01-24T22:46:12;27.80;;;16.98;;
9775;SDS011;4927;52.472;13.108;2023-01-24T22:51:22;32.38;;;18.00;;
9775;SDS011;4927;52.472;13.108;2023-01-24T22:56:32;37.03;;;18.83;;
9775;SDS011;4927;52.472;13.108;2023-01-24T23:01:44;29.63;;;17.35;;
9775;SDS011;4927;52.472;13.108;2023-01-24T23:06:54;27.83;;;17.90;;
9775;SDS011;4927;52.472;13.108;2023-01-24T23:11:59;28.55;;;17.80;;
9775;SDS011;4927;52.472;13.108;2023-01-24T23:17:10;29.58;;;17.98;;
9775;SDS011;4927;52.472;13.108;2023-01-24T23:22:17;32.25;;;17.98;;
9775;SDS011;4927;52.472;13.108;2023-01-24T23:27:23;28.05;;;18.27;;
9775;SDS011;4927;52.472;13.108;2023-01-24T23:32:37;31.10;;;18.17;;
9775;SDS011;4927;52.472;13.108;2023-01-24T23:37:46;30.58;;;18.00;;
9775;SDS011;4927;52.472;13.108;2023-01-24T23:42:56;26.45;;;17.17;;
9775;SDS011;4927;52.472;13.108;2023-01-24T23:48:03;32.33;;;18.33;;
9775;SDS011;4927;52.472;13.108;2023-01-24T23:53:14;29.30;;;18.60;;
9775;SDS011;4927;52.472;13.108;2023-01-24T23:58:24;27.95;;;17.20;;
